sensor_id;sensor_type;location;lat;lon;timestamp;P1;durP1;ratioP1;P2;durP2;ratioP2
68025;SDS011;54819;48.030;14.710;2022-11-04T00:00:34;15.40;;;6.00;;
68025;SDS011;54819;48.030;14.710;2022-11-04T00:03:01;14.20;;;6.70;;
68025;SDS011;54819;48.030;14.710;2022-11-04T00:05:28;10.60;;;5.50;;
68025;SDS011;54819;48.030;14.710;2022-11-04T00:07:54;14.30;;;6.50;;
68025;SDS011;54819;48.030;14.710;2022-11-04T00:10:40;15.20;;;6.20;;
68025;SDS011;54819;48.030;14.710;2022-11-04T00:13:28;17.40;;;7.80;;
68025;SDS011;54819;48.030;14.710;2022-11-04T00:16:00;25.10;;;8.80;;
68025;SDS011;54819;48.030;14.710;2022-11-04T00:18:45;24.50;;;9.90;;
68025;SDS011;54819;48.030;14.710;2022-11-04T00:21:12;25.50;;;10.50;;
68025;SDS011;54819;48.030;14.710;2022-11-04T00:23:58;19.20;;;7.70;;
68025;SDS011;54819;48.030;14.710;2022-11-04T00:26:44;21.70;;;8.80;;
68025;SDS011;54819;48.030;14.710;2022-11-04T00:29:29;22.40;;;8.30;;
68025;SDS011;54819;48.030;14.710;2022-11-04T00:31:56;24.30;;;8.50;;
68025;SDS011;54819;48.030;14.710;2022-11-04T00:34:42;20.10;;;7.10;;
68025;SDS011;54819;48.030;14.710;2022-11-04T00:37:09;20.70;;;8.00;;
68025;SDS011;54819;48.030;14.710;2022-11-04T00:39:36;17.90;;;8.40;;
68025;SDS011;54819;48.030;14.710;2022-11-04T00:42:03;20.20;;;8.30;;
68025;SDS011;54819;48.030;14.710;2022-11-04T00:44:31;15.20;;;7.00;;
68025;SDS011;54819;48.030;14.710;2022-11-04T00:46:58;12.30;;;6.20;;
68025;SDS011;54819;48.030;14.710;2022-11-04T00:49:25;13.80;;;6.10;;
68025;SDS011;54819;48.030;14.710;2022-11-04T00:51:51;13.00;;;6.20;;
68025;SDS011;54819;48.030;14.710;2022-11-04T00:54:18;11.60;;;5.80;;
68025;SDS011;54819;48.030;14.710;2022-11-04T00:56:45;13.80;;;6.60;;
68025;SDS011;54819;48.030;14.710;2022-11-04T00:59:14;13.60;;;6.30;;
68025;SDS011;54819;48.030;14.710;2022-11-04T01:01:41;17.30;;;6.80;;
68025;SDS011;54819;48.030;14.710;2022-11-04T01:04:08;18.30;;;7.50;;
68025;SDS011;54819;48.030;14.710;2022-11-04T01:06:35;15.70;;;6.20;;
68025;SDS011;54819;48.030;14.710;2022-11-04T01:09:06;16.50;;;6.40;;
68025;SDS011;54819;48.030;14.710;2022-11-04T01:11:34;12.30;;;6.10;;
68025;SDS011;54819;48.030;14.710;2022-11-04T01:14:01;16.10;;;6.10;;
68025;SDS011;54819;48.030;14.710;2022-11-04T01:16:28;11.90;;;5.70;;
68025;SDS011;54819;48.030;14.710;2022-11-04T01:18:55;13.90;;;6.30;;
68025;SDS011;54819;48.030;14.710;2022-11-04T01:21:23;12.50;;;5.80;;
68025;SDS011;54819;48.030;14.710;2022-11-04T01:23:50;13.20;;;6.70;;
68025;SDS011;54819;48.030;14.710;2022-11-04T01:26:21;12.10;;;6.60;;
68025;SDS011;54819;48.030;14.710;2022-11-04T01:28:51;11.60;;;5.80;;
68025;SDS011;54819;48.030;14.710;2022-11-04T01:31:25;15.10;;;6.70;;
68025;SDS011;54819;48.030;14.710;2022-11-04T01:33:54;11.40;;;5.10;;
68025;SDS011;54819;48.030;14.710;2022-11-04T01:36:23;17.50;;;5.20;;
68025;SDS011;54819;48.030;14.710;2022-11-04T01:38:51;11.30;;;5.30;;
68025;SDS011;54819;48.030;14.710;2022-11-04T01:41:23;13.50;;;5.30;;
68025;SDS011;54819;48.030;14.710;2022-11-04T01:43:58;11.70;;;6.00;;
68025;SDS011;54819;48.030;14.710;2022-11-04T01:46:46;12.30;;;6.10;;
68025;SDS011;54819;48.030;14.710;2022-11-04T01:49:26;12.60;;;6.30;;
68025;SDS011;54819;48.030;14.710;2022-11-04T01:52:02;12.40;;;5.80;;
68025;SDS011;54819;48.030;14.710;2022-11-04T01:54:31;10.00;;;5.10;;
68025;SDS011;54819;48.030;14.710;2022-11-04T01:57:01;16.70;;;6.40;;
68025;SDS011;54819;48.030;14.710;2022-11-04T01:59:35;11.30;;;5.50;;
68025;SDS011;54819;48.030;14.710;2022-11-04T02:02:05;11.80;;;5.60;;
68025;SDS011;54819;48.030;14.710;2022-11-04T02:04:33;11.90;;;5.80;;
68025;SDS011;54819;48.030;14.710;2022-11-04T02:07:03;13.60;;;6.00;;
68025;SDS011;54819;48.030;14.710;2022-11-04T02:09:35;17.80;;;7.30;;
68025;SDS011;54819;48.030;14.710;2022-11-04T02:12:04;12.00;;;6.30;;
68025;SDS011;54819;48.030;14.710;2022-11-04T02:14:50;14.50;;;5.70;;
68025;SDS011;54819;48.030;14.710;2022-11-04T02:17:28;14.60;;;7.00;;
68025;SDS011;54819;48.030;14.710;2022-11-04T02:43:25;17.60;;;8.50;;
68025;SDS011;54819;48.030;14.710;2022-11-04T02:49:05;15.00;;;8.20;;
68025;SDS011;54819;48.030;14.710;2022-11-04T02:51:56;18.40;;;8.80;;
68025;SDS011;54819;48.030;14.710;2022-11-04T02:54:36;16.00;;;8.60;;
68025;SDS011;54819;48.030;14.710;2022-11-04T02:57:23;16.90;;;7.80;;
68025;SDS011;54819;48.030;14.710;2022-11-04T03:00:03;14.90;;;6.80;;
68025;SDS011;54819;48.030;14.710;2022-11-04T03:03:11;13.30;;;7.20;;
68025;SDS011;54819;48.030;14.710;2022-11-04T03:05:45;13.50;;;6.90;;
68025;SDS011;54819;48.030;14.710;2022-11-04T03:08:24;10.60;;;5.50;;
68025;SDS011;54819;48.030;14.710;2022-11-04T03:11:14;9.90;;;5.40;;
68025;SDS011;54819;48.030;14.710;2022-11-04T03:13:49;13.80;;;6.10;;
68025;SDS011;54819;48.030;14.710;2022-11-04T03:16:22;10.40;;;5.10;;
68025;SDS011;54819;48.030;14.710;2022-11-04T03:21:53;12.10;;;5.40;;
68025;SDS011;54819;48.030;14.710;2022-11-04T03:24:23;9.90;;;5.60;;
68025;SDS011;54819;48.030;14.710;2022-11-04T03:26:59;9.20;;;4.30;;
68025;SDS011;54819;48.030;14.710;2022-11-04T03:34:50;8.80;;;4.60;;
68025;SDS011;54819;48.030;14.710;2022-11-04T03:37:18;11.90;;;5.30;;
68025;SDS011;54819;48.030;14.710;2022-11-04T03:39:45;12.30;;;5.10;;
68025;SDS011;54819;48.030;14.710;2022-11-04T03:42:13;8.30;;;4.50;;
68025;SDS011;54819;48.030;14.710;2022-11-04T03:44:55;9.40;;;4.70;;
68025;SDS011;54819;48.030;14.710;2022-11-04T03:47:25;12.00;;;4.70;;
68025;SDS011;54819;48.030;14.710;2022-11-04T03:50:04;10.50;;;4.30;;
68025;SDS011;54819;48.030;14.710;2022-11-04T03:52:35;12.60;;;4.70;;
68025;SDS011;54819;48.030;14.710;2022-11-04T03:55:03;18.10;;;4.10;;
68025;SDS011;54819;48.030;14.710;2022-11-04T03:57:55;10.00;;;4.10;;
68025;SDS011;54819;48.030;14.710;2022-11-04T04:00:33;9.10;;;4.20;;
68025;SDS011;54819;48.030;14.710;2022-11-04T04:03:09;7.50;;;4.10;;
68025;SDS011;54819;48.030;14.710;2022-11-04T04:05:52;16.20;;;5.30;;
68025;SDS011;54819;48.030;14.710;2022-11-04T04:11:43;10.30;;;4.60;;
68025;SDS011;54819;48.030;14.710;2022-11-04T04:14:16;9.70;;;4.30;;
68025;SDS011;54819;48.030;14.710;2022-11-04T04:17:49;10.00;;;4.90;;
68025;SDS011;54819;48.030;14.710;2022-11-04T04:20:20;10.70;;;4.70;;
68025;SDS011;54819;48.030;14.710;2022-11-04T04:25:27;10.00;;;5.20;;
68025;SDS011;54819;48.030;14.710;2022-11-04T04:28:17;10.30;;;5.10;;
68025;SDS011;54819;48.030;14.710;2022-11-04T04:30:45;10.20;;;4.80;;
68025;SDS011;54819;48.030;14.710;2022-11-04T04:33:14;9.90;;;5.00;;
68025;SDS011;54819;48.030;14.710;2022-11-04T04:35:49;14.80;;;5.60;;
68025;SDS011;54819;48.030;14.710;2022-11-04T04:38:28;9.60;;;5.30;;
68025;SDS011;54819;48.030;14.710;2022-11-04T04:41:26;10.80;;;4.60;;
68025;SDS011;54819;48.030;14.710;2022-11-04T04:44:22;7.50;;;3.80;;
68025;SDS011;54819;48.030;14.710;2022-11-04T04:47:14;7.10;;;4.10;;
68025;SDS011;54819;48.030;14.710;2022-11-04T04:49:59;8.10;;;4.50;;
68025;SDS011;54819;48.030;14.710;2022-11-04T04:52:33;8.00;;;4.60;;
68025;SDS011;54819;48.030;14.710;2022-11-04T04:55:05;8.20;;;3.60;;
68025;SDS011;54819;48.030;14.710;2022-11-04T04:57:33;6.80;;;3.50;;
68025;SDS011;54819;48.030;14.710;2022-11-04T05:00:00;5.70;;;3.30;;
68025;SDS011;54819;48.030;14.710;2022-11-04T05:02:27;6.80;;;3.60;;
68025;SDS011;54819;48.030;14.710;2022-11-04T05:04:54;5.30;;;3.00;;
68025;SDS011;54819;48.030;14.710;2022-11-04T05:07:21;7.60;;;3.10;;
68025;SDS011;54819;48.030;14.710;2022-11-04T05:09:48;5.90;;;2.80;;
68025;SDS011;54819;48.030;14.710;2022-11-04T05:12:16;5.80;;;3.20;;
68025;SDS011;54819;48.030;14.710;2022-11-04T05:14:43;5.30;;;2.60;;
68025;SDS011;54819;48.030;14.710;2022-11-04T05:17:09;6.70;;;3.10;;
68025;SDS011;54819;48.030;14.710;2022-11-04T05:19:37;7.60;;;2.50;;
68025;SDS011;54819;48.030;14.710;2022-11-04T05:22:03;4.70;;;2.00;;
68025;SDS011;54819;48.030;14.710;2022-11-04T05:24:30;5.60;;;2.00;;
68025;SDS011;54819;48.030;14.710;2022-11-04T05:26:57;4.40;;;2.00;;
68025;SDS011;54819;48.030;14.710;2022-11-04T05:29:24;4.60;;;2.00;;
68025;SDS011;54819;48.030;14.710;2022-11-04T05:31:51;5.10;;;1.90;;
68025;SDS011;54819;48.030;14.710;2022-11-04T05:34:18;3.90;;;1.70;;
68025;SDS011;54819;48.030;14.710;2022-11-04T05:36:44;5.70;;;2.10;;
68025;SDS011;54819;48.030;14.710;2022-11-04T05:39:12;3.50;;;1.80;;
68025;SDS011;54819;48.030;14.710;2022-11-04T05:41:39;4.70;;;1.70;;
68025;SDS011;54819;48.030;14.710;2022-11-04T05:44:07;4.10;;;1.80;;
68025;SDS011;54819;48.030;14.710;2022-11-04T05:46:35;4.30;;;1.70;;
68025;SDS011;54819;48.030;14.710;2022-11-04T05:49:02;4.30;;;1.70;;
68025;SDS011;54819;48.030;14.710;2022-11-04T05:51:30;3.40;;;1.40;;
68025;SDS011;54819;48.030;14.710;2022-11-04T05:53:57;3.00;;;1.40;;
68025;SDS011;54819;48.030;14.710;2022-11-04T05:56:24;3.70;;;1.70;;
68025;SDS011;54819;48.030;14.710;2022-11-04T05:58:51;4.30;;;2.20;;
68025;SDS011;54819;48.030;14.710;2022-11-04T06:01:31;3.70;;;1.60;;
68025;SDS011;54819;48.030;14.710;2022-11-04T06:04:04;2.90;;;1.50;;
68025;SDS011;54819;48.030;14.710;2022-11-04T06:06:34;4.50;;;1.60;;
68025;SDS011;54819;48.030;14.710;2022-11-04T06:09:02;3.30;;;1.60;;
68025;SDS011;54819;48.030;14.710;2022-11-04T06:11:30;3.00;;;1.60;;
68025;SDS011;54819;48.030;14.710;2022-11-04T06:13:59;3.50;;;1.70;;
68025;SDS011;54819;48.030;14.710;2022-11-04T06:16:26;3.90;;;2.00;;
68025;SDS011;54819;48.030;14.710;2022-11-04T06:18:54;3.70;;;1.90;;
68025;SDS011;54819;48.030;14.710;2022-11-04T06:21:31;5.10;;;2.90;;
68025;SDS011;54819;48.030;14.710;2022-11-04T06:23:59;4.60;;;2.00;;
68025;SDS011;54819;48.030;14.710;2022-11-04T06:26:27;5.70;;;1.70;;
68025;SDS011;54819;48.030;14.710;2022-11-04T06:28:56;2.70;;;1.30;;
68025;SDS011;54819;48.030;14.710;2022-11-04T06:31:23;5.50;;;1.20;;
68025;SDS011;54819;48.030;14.710;2022-11-04T06:33:50;2.60;;;1.10;;
68025;SDS011;54819;48.030;14.710;2022-11-04T06:36:17;3.70;;;1.10;;
68025;SDS011;54819;48.030;14.710;2022-11-04T06:38:44;3.00;;;1.30;;
68025;SDS011;54819;48.030;14.710;2022-11-04T06:41:14;2.80;;;1.20;;
68025;SDS011;54819;48.030;14.710;2022-11-04T06:43:42;3.40;;;1.40;;
68025;SDS011;54819;48.030;14.710;2022-11-04T06:46:38;3.70;;;1.50;;
68025;SDS011;54819;48.030;14.710;2022-11-04T06:49:11;3.60;;;1.30;;
68025;SDS011;54819;48.030;14.710;2022-11-04T06:51:40;3.10;;;1.20;;
68025;SDS011;54819;48.030;14.710;2022-11-04T06:54:07;3.30;;;1.40;;
68025;SDS011;54819;48.030;14.710;2022-11-04T06:56:34;2.60;;;1.30;;
68025;SDS011;54819;48.030;14.710;2022-11-04T06:59:02;2.10;;;0.90;;
68025;SDS011;54819;48.030;14.710;2022-11-04T07:01:32;3.60;;;1.30;;
68025;SDS011;54819;48.030;14.710;2022-11-04T07:04:02;3.80;;;1.60;;
68025;SDS011;54819;48.030;14.710;2022-11-04T07:06:30;4.10;;;1.30;;
68025;SDS011;54819;48.030;14.710;2022-11-04T07:09:01;2.50;;;1.00;;
68025;SDS011;54819;48.030;14.710;2022-11-04T07:11:30;2.30;;;1.10;;
68025;SDS011;54819;48.030;14.710;2022-11-04T07:13:58;2.30;;;1.00;;
68025;SDS011;54819;48.030;14.710;2022-11-04T07:16:25;4.00;;;1.90;;
68025;SDS011;54819;48.030;14.710;2022-11-04T07:18:53;2.00;;;0.90;;
68025;SDS011;54819;48.030;14.710;2022-11-04T07:21:21;3.30;;;0.70;;
68025;SDS011;54819;48.030;14.710;2022-11-04T07:23:48;2.00;;;0.70;;
68025;SDS011;54819;48.030;14.710;2022-11-04T07:26:15;4.90;;;1.10;;
68025;SDS011;54819;48.030;14.710;2022-11-04T07:28:42;2.70;;;1.10;;
68025;SDS011;54819;48.030;14.710;2022-11-04T07:31:11;2.60;;;1.10;;
68025;SDS011;54819;48.030;14.710;2022-11-04T07:33:39;5.40;;;2.40;;
68025;SDS011;54819;48.030;14.710;2022-11-04T07:36:09;2.60;;;1.40;;
68025;SDS011;54819;48.030;14.710;2022-11-04T07:38:38;1.70;;;0.90;;
68025;SDS011;54819;48.030;14.710;2022-11-04T07:41:05;1.40;;;0.60;;
68025;SDS011;54819;48.030;14.710;2022-11-04T07:43:32;3.50;;;0.90;;
68025;SDS011;54819;48.030;14.710;2022-11-04T07:46:03;2.50;;;0.70;;
68025;SDS011;54819;48.030;14.710;2022-11-04T07:48:36;1.30;;;0.70;;
68025;SDS011;54819;48.030;14.710;2022-11-04T07:51:05;2.80;;;1.20;;
68025;SDS011;54819;48.030;14.710;2022-11-04T07:53:34;2.00;;;0.70;;
68025;SDS011;54819;48.030;14.710;2022-11-04T07:56:03;2.10;;;0.70;;
68025;SDS011;54819;48.030;14.710;2022-11-04T07:58:33;2.30;;;0.90;;
68025;SDS011;54819;48.030;14.710;2022-11-04T08:03:30;1.20;;;0.60;;
68025;SDS011;54819;48.030;14.710;2022-11-04T08:06:00;1.30;;;0.70;;
68025;SDS011;54819;48.030;14.710;2022-11-04T08:08:29;2.00;;;0.80;;
68025;SDS011;54819;48.030;14.710;2022-11-04T08:10:59;3.30;;;1.50;;
68025;SDS011;54819;48.030;14.710;2022-11-04T08:13:30;3.00;;;1.00;;
68025;SDS011;54819;48.030;14.710;2022-11-04T08:16:03;5.90;;;2.00;;
68025;SDS011;54819;48.030;14.710;2022-11-04T08:18:39;2.90;;;1.20;;
68025;SDS011;54819;48.030;14.710;2022-11-04T08:21:08;3.40;;;1.10;;
68025;SDS011;54819;48.030;14.710;2022-11-04T08:23:36;4.30;;;1.90;;
68025;SDS011;54819;48.030;14.710;2022-11-04T08:26:11;4.70;;;1.80;;
68025;SDS011;54819;48.030;14.710;2022-11-04T08:28:43;4.50;;;2.00;;
68025;SDS011;54819;48.030;14.710;2022-11-04T08:31:15;2.30;;;1.20;;
68025;SDS011;54819;48.030;14.710;2022-11-04T08:33:44;2.30;;;0.80;;
68025;SDS011;54819;48.030;14.710;2022-11-04T08:36:32;1.90;;;0.80;;
68025;SDS011;54819;48.030;14.710;2022-11-04T08:39:07;1.80;;;0.80;;
68025;SDS011;54819;48.030;14.710;2022-11-04T08:41:39;1.70;;;0.60;;
68025;SDS011;54819;48.030;14.710;2022-11-04T08:44:08;1.20;;;0.70;;
68025;SDS011;54819;48.030;14.710;2022-11-04T08:46:38;9.40;;;1.00;;
68025;SDS011;54819;48.030;14.710;2022-11-04T08:49:07;2.00;;;0.50;;
68025;SDS011;54819;48.030;14.710;2022-11-04T08:51:40;1.20;;;0.60;;
68025;SDS011;54819;48.030;14.710;2022-11-04T08:54:10;1.90;;;0.70;;
68025;SDS011;54819;48.030;14.710;2022-11-04T08:56:38;2.00;;;1.00;;
68025;SDS011;54819;48.030;14.710;2022-11-04T08:59:06;2.00;;;0.90;;
68025;SDS011;54819;48.030;14.710;2022-11-04T09:01:35;2.10;;;0.70;;
68025;SDS011;54819;48.030;14.710;2022-11-04T09:04:04;7.40;;;2.50;;
68025;SDS011;54819;48.030;14.710;2022-11-04T09:06:35;2.90;;;1.30;;
68025;SDS011;54819;48.030;14.710;2022-11-04T09:09:06;3.00;;;1.00;;
68025;SDS011;54819;48.030;14.710;2022-11-04T09:11:37;2.40;;;0.90;;
68025;SDS011;54819;48.030;14.710;2022-11-04T09:14:06;3.60;;;0.80;;
68025;SDS011;54819;48.030;14.710;2022-11-04T09:16:34;4.40;;;0.80;;
68025;SDS011;54819;48.030;14.710;2022-11-04T09:19:03;4.20;;;1.00;;
68025;SDS011;54819;48.030;14.710;2022-11-04T09:21:30;3.20;;;1.20;;
68025;SDS011;54819;48.030;14.710;2022-11-04T09:23:57;7.40;;;1.10;;
68025;SDS011;54819;48.030;14.710;2022-11-04T09:26:24;2.30;;;1.00;;
68025;SDS011;54819;48.030;14.710;2022-11-04T09:28:53;2.40;;;0.70;;
68025;SDS011;54819;48.030;14.710;2022-11-04T09:31:22;1.30;;;0.50;;
68025;SDS011;54819;48.030;14.710;2022-11-04T09:33:50;2.80;;;0.70;;
68025;SDS011;54819;48.030;14.710;2022-11-04T09:36:17;2.10;;;0.60;;
68025;SDS011;54819;48.030;14.710;2022-11-04T09:38:44;1.60;;;0.70;;
68025;SDS011;54819;48.030;14.710;2022-11-04T09:44:45;1.80;;;0.70;;
68025;SDS011;54819;48.030;14.710;2022-11-04T09:47:43;1.20;;;0.50;;
68025;SDS011;54819;48.030;14.710;2022-11-04T09:50:19;1.20;;;0.60;;
68025;SDS011;54819;48.030;14.710;2022-11-04T09:53:15;1.30;;;0.50;;
68025;SDS011;54819;48.030;14.710;2022-11-04T09:58:20;0.50;;;0.50;;
68025;SDS011;54819;48.030;14.710;2022-11-04T10:00:56;1.90;;;0.70;;
68025;SDS011;54819;48.030;14.710;2022-11-04T10:03:51;2.60;;;0.60;;
68025;SDS011;54819;48.030;14.710;2022-11-04T10:06:41;0.90;;;0.50;;
68025;SDS011;54819;48.030;14.710;2022-11-04T10:21:48;0.30;;;0.30;;
68025;SDS011;54819;48.030;14.710;2022-11-04T10:27:36;0.70;;;0.40;;
68025;SDS011;54819;48.030;14.710;2022-11-04T10:35:52;0.80;;;0.40;;
68025;SDS011;54819;48.030;14.710;2022-11-04T10:41:01;0.80;;;0.40;;
68025;SDS011;54819;48.030;14.710;2022-11-04T10:43:36;1.00;;;0.30;;
68025;SDS011;54819;48.030;14.710;2022-11-04T10:52:34;0.70;;;0.40;;
68025;SDS011;54819;48.030;14.710;2022-11-04T10:57:46;2.50;;;0.40;;
68025;SDS011;54819;48.030;14.710;2022-11-04T11:00:44;0.40;;;0.40;;
68025;SDS011;54819;48.030;14.710;2022-11-04T11:03:29;1.00;;;0.40;;
68025;SDS011;54819;48.030;14.710;2022-11-04T11:06:20;0.80;;;0.60;;
68025;SDS011;54819;48.030;14.710;2022-11-04T11:08:56;4.30;;;0.70;;
68025;SDS011;54819;48.030;14.710;2022-11-04T11:16:46;2.90;;;1.40;;
68025;SDS011;54819;48.030;14.710;2022-11-04T11:19:17;3.00;;;0.90;;
68025;SDS011;54819;48.030;14.710;2022-11-04T11:21:51;0.80;;;0.50;;
68025;SDS011;54819;48.030;14.710;2022-11-04T11:24:23;1.10;;;0.50;;
68025;SDS011;54819;48.030;14.710;2022-11-04T11:26:57;0.50;;;0.40;;
68025;SDS011;54819;48.030;14.710;2022-11-04T11:29:29;1.90;;;0.60;;
68025;SDS011;54819;48.030;14.710;2022-11-04T11:32:23;2.50;;;0.60;;
68025;SDS011;54819;48.030;14.710;2022-11-04T11:34:57;2.10;;;1.50;;
68025;SDS011;54819;48.030;14.710;2022-11-04T11:37:32;1.90;;;1.00;;
68025;SDS011;54819;48.030;14.710;2022-11-04T11:39:59;1.00;;;0.50;;
68025;SDS011;54819;48.030;14.710;2022-11-04T11:42:26;0.70;;;0.20;;
68025;SDS011;54819;48.030;14.710;2022-11-04T11:44:55;3.00;;;0.50;;
68025;SDS011;54819;48.030;14.710;2022-11-04T11:50:15;4.10;;;1.70;;
68025;SDS011;54819;48.030;14.710;2022-11-04T11:52:47;3.70;;;1.60;;
68025;SDS011;54819;48.030;14.710;2022-11-04T11:55:26;1.20;;;0.50;;
68025;SDS011;54819;48.030;14.710;2022-11-04T12:01:09;0.90;;;0.60;;
68025;SDS011;54819;48.030;14.710;2022-11-04T12:03:49;0.80;;;0.50;;
68025;SDS011;54819;48.030;14.710;2022-11-04T12:07:04;2.90;;;0.80;;
68025;SDS011;54819;48.030;14.710;2022-11-04T12:13:29;4.70;;;1.50;;
68025;SDS011;54819;48.030;14.710;2022-11-04T12:19:07;1.60;;;0.50;;
68025;SDS011;54819;48.030;14.710;2022-11-04T12:25:20;4.30;;;1.10;;
68025;SDS011;54819;48.030;14.710;2022-11-04T12:28:18;1.30;;;0.60;;
68025;SDS011;54819;48.030;14.710;2022-11-04T12:31:12;2.30;;;1.00;;
68025;SDS011;54819;48.030;14.710;2022-11-04T12:36:33;2.10;;;1.10;;
68025;SDS011;54819;48.030;14.710;2022-11-04T12:47:48;1.40;;;0.60;;
68025;SDS011;54819;48.030;14.710;2022-11-04T12:50:43;0.30;;;0.30;;
68025;SDS011;54819;48.030;14.710;2022-11-04T12:56:06;2.80;;;1.30;;
68025;SDS011;54819;48.030;14.710;2022-11-04T12:59:19;2.60;;;0.90;;
68025;SDS011;54819;48.030;14.710;2022-11-04T13:02:20;1.00;;;0.60;;
68025;SDS011;54819;48.030;14.710;2022-11-04T13:04:59;0.50;;;0.40;;
68025;SDS011;54819;48.030;14.710;2022-11-04T13:07:37;3.50;;;0.80;;
68025;SDS011;54819;48.030;14.710;2022-11-04T13:10:37;3.30;;;1.50;;
68025;SDS011;54819;48.030;14.710;2022-11-04T13:13:13;1.60;;;0.60;;
68025;SDS011;54819;48.030;14.710;2022-11-04T13:15:50;0.80;;;0.60;;
68025;SDS011;54819;48.030;14.710;2022-11-04T13:18:22;1.60;;;0.70;;
68025;SDS011;54819;48.030;14.710;2022-11-04T13:21:03;1.30;;;0.50;;
68025;SDS011;54819;48.030;14.710;2022-11-04T13:26:31;0.30;;;0.30;;
68025;SDS011;54819;48.030;14.710;2022-11-04T13:29:05;0.70;;;0.40;;
68025;SDS011;54819;48.030;14.710;2022-11-04T13:31:50;0.30;;;0.30;;
68025;SDS011;54819;48.030;14.710;2022-11-04T13:34:49;0.80;;;0.40;;
68025;SDS011;54819;48.030;14.710;2022-11-04T13:37:30;0.20;;;0.20;;
68025;SDS011;54819;48.030;14.710;2022-11-04T13:46:01;0.50;;;0.20;;
68025;SDS011;54819;48.030;14.710;2022-11-04T13:48:31;0.20;;;0.20;;
68025;SDS011;54819;48.030;14.710;2022-11-04T13:51:10;0.20;;;0.20;;
68025;SDS011;54819;48.030;14.710;2022-11-04T13:56:29;0.70;;;0.50;;
68025;SDS011;54819;48.030;14.710;2022-11-04T13:59:22;0.80;;;0.40;;
68025;SDS011;54819;48.030;14.710;2022-11-04T14:04:45;2.20;;;1.40;;
68025;SDS011;54819;48.030;14.710;2022-11-04T14:07:16;0.30;;;0.30;;
68025;SDS011;54819;48.030;14.710;2022-11-04T14:09:53;0.50;;;0.40;;
68025;SDS011;54819;48.030;14.710;2022-11-04T14:12:28;0.30;;;0.30;;
68025;SDS011;54819;48.030;14.710;2022-11-04T14:15:10;0.30;;;0.30;;
68025;SDS011;54819;48.030;14.710;2022-11-04T14:22:58;0.20;;;0.20;;
68025;SDS011;54819;48.030;14.710;2022-11-04T14:28:26;2.70;;;0.60;;
68025;SDS011;54819;48.030;14.710;2022-11-04T14:31:00;0.50;;;0.40;;
68025;SDS011;54819;48.030;14.710;2022-11-04T14:36:23;3.40;;;1.90;;
68025;SDS011;54819;48.030;14.710;2022-11-04T14:46:42;0.80;;;0.50;;
68025;SDS011;54819;48.030;14.710;2022-11-04T14:49:41;0.40;;;0.30;;
68025;SDS011;54819;48.030;14.710;2022-11-04T14:54:42;5.50;;;1.10;;
68025;SDS011;54819;48.030;14.710;2022-11-04T14:59:42;0.80;;;0.40;;
68025;SDS011;54819;48.030;14.710;2022-11-04T15:04:54;1.10;;;1.00;;
68025;SDS011;54819;48.030;14.710;2022-11-04T15:07:37;0.40;;;0.30;;
68025;SDS011;54819;48.030;14.710;2022-11-04T15:10:34;0.90;;;0.40;;
68025;SDS011;54819;48.030;14.710;2022-11-04T15:13:01;0.50;;;0.40;;
68025;SDS011;54819;48.030;14.710;2022-11-04T15:15:35;0.60;;;0.30;;
68025;SDS011;54819;48.030;14.710;2022-11-04T15:18:07;2.50;;;0.60;;
68025;SDS011;54819;48.030;14.710;2022-11-04T15:20:55;1.30;;;0.60;;
68025;SDS011;54819;48.030;14.710;2022-11-04T15:23:35;0.80;;;0.30;;
68025;SDS011;54819;48.030;14.710;2022-11-04T15:26:28;0.80;;;0.30;;
68025;SDS011;54819;48.030;14.710;2022-11-04T15:28:59;0.90;;;0.40;;
68025;SDS011;54819;48.030;14.710;2022-11-04T15:31:31;1.20;;;0.30;;
68025;SDS011;54819;48.030;14.710;2022-11-04T15:34:02;0.60;;;0.20;;
68025;SDS011;54819;48.030;14.710;2022-11-04T15:36:40;0.20;;;0.20;;
68025;SDS011;54819;48.030;14.710;2022-11-04T15:39:25;0.80;;;0.30;;
68025;SDS011;54819;48.030;14.710;2022-11-04T15:42:00;0.40;;;0.40;;
68025;SDS011;54819;48.030;14.710;2022-11-04T15:44:49;0.30;;;0.30;;
68025;SDS011;54819;48.030;14.710;2022-11-04T15:49:50;0.20;;;0.20;;
68025;SDS011;54819;48.030;14.710;2022-11-04T15:52:26;0.20;;;0.20;;
68025;SDS011;54819;48.030;14.710;2022-11-04T15:54:58;0.20;;;0.20;;
68025;SDS011;54819;48.030;14.710;2022-11-04T15:57:32;0.60;;;0.30;;
68025;SDS011;54819;48.030;14.710;2022-11-04T16:02:51;0.50;;;0.30;;
68025;SDS011;54819;48.030;14.710;2022-11-04T16:05:28;1.00;;;0.40;;
68025;SDS011;54819;48.030;14.710;2022-11-04T16:08:26;0.30;;;0.30;;
68025;SDS011;54819;48.030;14.710;2022-11-04T16:11:12;0.30;;;0.30;;
68025;SDS011;54819;48.030;14.710;2022-11-04T16:13:41;1.60;;;0.60;;
68025;SDS011;54819;48.030;14.710;2022-11-04T16:18:43;1.00;;;0.40;;
68025;SDS011;54819;48.030;14.710;2022-11-04T16:21:36;1.50;;;0.80;;
68025;SDS011;54819;48.030;14.710;2022-11-04T16:26:50;1.40;;;0.70;;
68025;SDS011;54819;48.030;14.710;2022-11-04T16:29:28;1.30;;;0.70;;
68025;SDS011;54819;48.030;14.710;2022-11-04T16:34:34;2.20;;;0.60;;
68025;SDS011;54819;48.030;14.710;2022-11-04T16:37:01;1.00;;;0.50;;
68025;SDS011;54819;48.030;14.710;2022-11-04T16:39:28;3.30;;;0.60;;
68025;SDS011;54819;48.030;14.710;2022-11-04T16:41:55;0.70;;;0.40;;
68025;SDS011;54819;48.030;14.710;2022-11-04T16:44:24;3.10;;;0.70;;
68025;SDS011;54819;48.030;14.710;2022-11-04T16:46:52;2.50;;;0.60;;
68025;SDS011;54819;48.030;14.710;2022-11-04T16:51:53;1.70;;;0.70;;
68025;SDS011;54819;48.030;14.710;2022-11-04T16:54:22;2.50;;;0.60;;
68025;SDS011;54819;48.030;14.710;2022-11-04T16:56:50;2.70;;;0.80;;
68025;SDS011;54819;48.030;14.710;2022-11-04T16:59:17;1.80;;;0.70;;
68025;SDS011;54819;48.030;14.710;2022-11-04T17:01:44;1.30;;;0.50;;
68025;SDS011;54819;48.030;14.710;2022-11-04T17:04:11;0.90;;;0.60;;
68025;SDS011;54819;48.030;14.710;2022-11-04T17:06:38;2.10;;;0.60;;
68025;SDS011;54819;48.030;14.710;2022-11-04T17:09:19;2.60;;;0.60;;
68025;SDS011;54819;48.030;14.710;2022-11-04T17:11:48;3.00;;;0.70;;
68025;SDS011;54819;48.030;14.710;2022-11-04T17:14:15;1.70;;;0.50;;
68025;SDS011;54819;48.030;14.710;2022-11-04T17:16:42;3.50;;;2.20;;
68025;SDS011;54819;48.030;14.710;2022-11-04T17:19:14;1.00;;;0.50;;
68025;SDS011;54819;48.030;14.710;2022-11-04T17:21:43;0.50;;;0.50;;
68025;SDS011;54819;48.030;14.710;2022-11-04T17:24:11;1.60;;;0.50;;
68025;SDS011;54819;48.030;14.710;2022-11-04T17:26:39;2.60;;;0.70;;
68025;SDS011;54819;48.030;14.710;2022-11-04T17:29:07;0.70;;;0.50;;
68025;SDS011;54819;48.030;14.710;2022-11-04T17:31:42;1.40;;;1.00;;
68025;SDS011;54819;48.030;14.710;2022-11-04T17:34:09;1.60;;;1.00;;
68025;SDS011;54819;48.030;14.710;2022-11-04T17:36:37;2.10;;;0.50;;
68025;SDS011;54819;48.030;14.710;2022-11-04T17:39:04;1.80;;;0.70;;
68025;SDS011;54819;48.030;14.710;2022-11-04T17:41:32;1.30;;;0.90;;
68025;SDS011;54819;48.030;14.710;2022-11-04T17:44:17;0.90;;;0.60;;
68025;SDS011;54819;48.030;14.710;2022-11-04T17:46:44;1.50;;;0.70;;
68025;SDS011;54819;48.030;14.710;2022-11-04T17:49:16;2.50;;;0.80;;
68025;SDS011;54819;48.030;14.710;2022-11-04T17:51:53;3.40;;;1.30;;
68025;SDS011;54819;48.030;14.710;2022-11-04T17:54:23;4.30;;;1.10;;
68025;SDS011;54819;48.030;14.710;2022-11-04T17:56:52;3.40;;;0.80;;
68025;SDS011;54819;48.030;14.710;2022-11-04T17:59:19;3.10;;;1.00;;
68025;SDS011;54819;48.030;14.710;2022-11-04T18:01:46;3.70;;;1.00;;
68025;SDS011;54819;48.030;14.710;2022-11-04T18:04:16;1.00;;;0.50;;